Time;durP1;ratioP1;P1;durP2;ratioP2;P2;SDS_P1;SDS_P2;PMS_P1;PMS_P2;Temp;Humidity;BMP_temperature;BMP_pressure;BME280_temperature;BME280_humidity;BME280_pressure;Samples;Min_cycle;Max_cycle;Signal;HPM_P1;HPM_P2
2022/05/24 00:01:36;;;;;;;5.37;2.95;;;;;;;13.28;60.42;97833.46;1610147;89;26147;-58
2022/05/24 00:04:02;;;;;;;3.47;2.92;;;;;;;13.28;60.25;97832.89;1610135;89;25777;-60
2022/05/24 00:06:31;;;;;;;3.90;2.80;;;;;;;13.31;60.11;97828.63;1610228;89;25703;-57
2022/05/24 00:08:59;;;;;;;3.83;3.17;;;;;;;13.28;60.59;97826.58;1606446;89;25713;-58
2022/05/24 00:11:25;;;;;;;6.85;3.50;;;;;;;13.25;60.67;97828.09;1610542;89;27340;-59
2022/05/24 00:13:51;;;;;;;3.92;3.27;;;;;;;13.25;60.35;97828.09;1610304;89;25753;-57
2022/05/24 00:16:19;;;;;;;5.28;3.40;;;;;;;13.26;60.57;97830.25;1624406;86;25550;-57
2022/05/24 00:18:47;;;;;;;5.53;3.47;;;;;;;13.25;60.76;97830.04;1663839;86;25739;-59
2022/05/24 00:21:14;;;;;;;4.20;3.30;;;;;;;13.21;60.71;97823.05;1681090;85;25413;-60
2022/05/24 00:23:40;;;;;;;6.05;3.33;;;;;;;13.17;60.81;97827.67;1681160;85;27536;-60
2022/05/24 00:26:10;;;;;;;6.65;3.22;;;;;;;13.18;60.93;97823.19;1658679;86;25457;-57
2022/05/24 00:28:37;;;;;;;4.50;3.17;;;;;;;13.17;60.87;97824.91;1662017;85;25709;-61
2022/05/24 00:31:05;;;;;;;3.95;3.10;;;;;;;13.14;61.22;97821.49;1679372;85;25729;-56
2022/05/24 00:33:32;;;;;;;5.75;4.20;;;;;;;13.09;61.28;97827.23;1679461;84;25717;-57
2022/05/24 09:30:40;;;;;;;4.30;2.95;;;;;;;19.33;52.92;97815.89;1781500;80;25288;-60
2022/05/24 09:33:29;;;;;;;3.35;2.83;;;;;;;19.17;52.93;97823.21;1740027;81;25534;-58
2022/05/24 09:36:00;;;;;;;6.83;2.80;;;;;;;19.09;53.12;97821.59;1734505;82;27421;-57
2022/05/24 09:38:37;;;;;;;4.97;2.65;;;;;;;18.94;54.24;97823.69;1705856;83;25803;-58
2022/05/24 09:41:15;;;;;;;3.87;2.77;;;;;;;18.90;54.59;97827.05;1728796;83;25712;-61
2022/05/24 09:43:43;;;;;;;4.53;2.98;;;;;;;18.82;53.67;97829.59;1728321;83;25491;-59
2022/05/24 09:46:21;;;;;;;4.30;2.42;;;;;;;18.71;54.60;97830.14;1638492;86;25762;-60
2022/05/24 09:49:03;;;;;;;2.95;2.65;;;;;;;18.65;55.52;97833.28;1659110;86;28557;-61
2022/05/24 09:51:34;;;;;;;4.25;2.60;;;;;;;18.51;56.33;97835.99;1660876;86;25702;-61
2022/05/24 09:54:06;;;;;;;6.30;3.05;;;;;;;18.37;57.21;97845.83;1607478;89;25828;-61
2022/05/24 09:56:33;;;;;;;6.95;3.55;;;;;;;18.23;58.31;97846.52;1607837;89;25496;-58
2022/05/24 09:59:05;;;;;;;3.95;3.45;;;;;;;18.16;58.66;97847.83;1623045;88;25526;-58
2022/05/24 10:01:43;;;;;;;5.53;3.75;;;;;;;18.07;60.25;97842.59;1607872;89;27420;-59
2022/05/24 10:04:35;;;;;;;6.95;3.80;;;;;;;18.01;60.77;97843.55;1621647;88;26107;-57
2022/05/24 10:07:25;;;;;;;5.75;4.37;;;;;;;17.96;62.21;97848.66;1640075;87;25696;-57
2022/05/24 10:10:14;;;;;;;5.97;4.47;;;;;;;17.97;61.31;97852.44;1640303;87;25510;-57
2022/05/24 10:12:58;;;;;;;7.40;4.60;;;;;;;18.02;62.39;97844.36;1630961;87;25762;-57
2022/05/24 10:16:13;;;;;;;5.42;3.80;;;;;;;18.06;61.95;97836.86;1590424;90;29477;-58
2022/05/24 10:19:12;;;;;;;7.10;4.12;;;;;;;18.20;61.91;97842.33;1553006;90;25669;-60
2022/05/24 10:24:44;;;;;;;10.20;6.33;;;;;;;18.28;61.14;97839.81;1571425;88;25901;-58
2022/05/24 10:27:33;;;;;;;6.70;4.17;;;;;;;18.16;61.71;97843.09;1567699;91;26812;-58
2022/05/24 10:30:31;;;;;;;8.93;5.35;;;;;;;18.13;62.46;97843.09;1501036;94;28240;-57
2022/05/24 10:39:47;;;;;;;9.70;3.70;;;;;;;18.24;62.10;97848.10;1503718;95;25848;-58
2022/05/24 10:42:40;;;;;;;5.10;3.60;;;;;;;18.37;62.35;97854.14;1526483;93;25825;-58
2022/05/24 10:45:17;;;;;;;4.95;3.30;;;;;;;18.45;62.08;97845.86;1503971;95;27260;-57
2022/05/24 10:48:01;;;;;;;6.33;4.12;;;;;;;18.52;61.34;97855.02;1502947;95;25887;-57
2022/05/24 10:50:35;;;;;;;5.90;3.40;;;;;;;18.57;62.41;97851.09;1494218;95;25861;-60
2022/05/24 10:53:19;;;;;;;7.33;4.78;;;;;;;18.55;60.55;97852.06;1533112;93;25819;-61
2022/05/24 10:56:00;;;;;;;6.72;4.40;;;;;;;18.54;61.25;97847.09;1428946;100;25872;-60
2022/05/24 10:58:31;;;;;;;7.17;4.15;;;;;;;18.63;61.69;97850.93;1401093;101;28034;-60
2022/05/24 11:01:18;;;;;;;8.73;4.20;;;;;;;18.78;61.63;97850.41;1379729;103;25902;-61
2022/05/24 11:03:52;;;;;;;6.55;3.95;;;;;;;18.92;62.29;97852.45;1356052;105;25875;-61
2022/05/24 11:06:41;;;;;;;6.00;3.77;;;;;;;19.06;60.89;97849.53;1339878;107;25935;-62
2022/05/24 11:09:21;;;;;;;9.60;3.35;;;;;;;19.17;60.73;97850.98;1361249;105;25977;-60
2022/05/24 11:11:56;;;;;;;4.37;3.45;;;;;;;19.34;59.94;97845.87;1336086;107;27694;-61
2022/05/24 11:14:37;;;;;;;4.80;3.00;;;;;;;19.44;60.63;97842.31;1336088;107;25919;-61
2022/05/24 11:17:04;;;;;;;7.40;3.80;;;;;;;19.51;58.97;97844.30;1336863;107;25631;-61
2022/05/24 11:19:42;;;;;;;6.70;3.85;;;;;;;19.54;58.98;97848.48;1354348;105;25672;-61
2022/05/24 11:22:29;;;;;;;4.50;3.60;;;;;;;19.61;59.35;97841.34;1338011;105;25799;-61
2022/05/24 11:25:27;;;;;;;3.80;3.33;;;;;;;19.62;58.65;97856.23;1373106;104;27467;-60
2022/05/24 11:28:04;;;;;;;6.65;3.70;;;;;;;19.57;58.49;97853.83;1410750;101;25628;-59
2022/05/24 11:30:41;;;;;;;6.22;3.50;;;;;;;19.60;58.56;97848.09;1455407;98;25622;-59
2022/05/24 11:33:15;;;;;;;4.35;3.40;;;;;;;19.65;58.61;97847.69;1459450;96;25809;-61
2022/05/24 11:35:46;;;;;;;7.80;4.00;;;;;;;19.73;58.13;97839.57;1478703;97;25587;-59
2022/05/24 11:38:26;;;;;;;7.05;3.60;;;;;;;19.90;57.88;97846.92;1521752;92;28219;-61
2022/05/24 11:41:16;;;;;;;5.70;4.00;;;;;;;20.12;57.73;97846.95;1545901;92;25836;-61
2022/05/24 11:43:46;;;;;;;8.18;3.77;;;;;;;20.24;57.18;97838.79;1594643;90;25589;-60
2022/05/24 11:46:41;;;;;;;7.25;4.05;;;;;;;20.34;57.09;97837.97;1595213;89;25987;-61
2022/05/24 11:49:22;;;;;;;4.58;3.50;;;;;;;20.47;57.54;97841.14;1595164;89;25550;-59
2022/05/24 11:51:57;;;;;;;5.50;3.12;;;;;;;20.63;55.85;97843.47;1594808;90;28061;-57
2022/05/24 11:54:28;;;;;;;4.87;3.37;;;;;;;20.76;56.35;97836.88;1593956;89;25759;-57
2022/05/24 11:57:25;;;;;;;9.50;3.80;;;;;;;20.95;55.59;97843.19;1595084;90;25565;-58
2022/05/24 11:59:53;;;;;;;6.15;2.90;;;;;;;21.12;55.54;97837.34;1600884;88;25554;-57
2022/05/24 12:02:43;;;;;;;;;;;;;;;;;;;;;
2022/05/24 12:08:09;;;;;;;5.42;3.52;;;;;;;21.59;54.36;97833.50;1749971;82;25492;-58
2022/05/24 12:10:51;;;;;;;4.83;3.30;;;;;;;21.81;54.30;97833.35;1747861;82;25460;-60
2022/05/24 12:13:32;;;;;;;5.92;3.40;;;;;;;21.98;52.77;97833.61;1746620;82;25741;-59
2022/05/24 12:16:03;;;;;;;4.50;3.98;;;;;;;22.15;52.60;97831.88;1621106;88;25538;-61
2022/05/24 12:19:05;;;;;;;;;;;;;;;;;;;;;
2022/05/24 12:22:00;;;;;;;5.28;3.50;;;;;;;22.43;52.03;97824.44;1578614;90;25562;-63
2022/05/24 12:24:40;;;;;;;4.75;3.37;;;;;;;22.51;52.53;97825.16;1535560;93;25758;-62
2022/05/24 12:27:37;;;;;;;;;;;;;;;22.83;52.50;97826.02;1585886;90;25730;-60
2022/05/24 12:30:35;;;;;;;7.00;3.60;;;;;;;23.09;50.77;97822.30;1576730;90;25559;-64
2022/05/24 12:33:18;;;;;;;4.75;3.20;;;;;;;23.36;51.21;97820.92;1574309;91;27564;-61
2022/05/24 12:36:19;;;;;;;;;;;;;;;;;;;;;
2022/05/24 12:38:38;;;;;;;4.97;3.40;;;;;;;23.74;49.23;97827.56;1540448;93;25638;-62
2022/05/24 12:41:27;;;;;;;5.62;3.60;;;;;;;23.87;49.01;97832.77;1529301;93;25609;-61
2022/05/24 12:46:33;;;;;;;6.60;3.70;;;;;;;23.72;50.08;97819.63;1475153;97;26189;-61
2022/05/24 12:51:45;;;;;;;6.72;3.58;;;;;;;23.84;47.98;97819.63;1487490;96;25765;-62
2022/05/24 12:54:31;;;;;;;7.08;3.50;;;;;;;24.15;49.16;97818.12;1465881;96;25620;-59
2022/05/24 12:57:09;;;;;;;5.42;3.45;;;;;;;24.50;49.91;97816.51;1444332;99;25738;-62
2022/05/24 12:59:41;;;;;;;7.35;3.90;;;;;;;24.62;47.42;97824.88;1458061;98;27559;-62
2022/05/24 13:02:39;;;;;;;6.90;3.90;;;;;;;24.54;47.74;97827.02;1469108;97;25788;-61
2022/05/24 13:05:23;;;;;;;5.87;3.70;;;;;;;24.52;47.97;97823.08;1494958;96;25795;-60
2022/05/24 13:07:56;;;;;;;6.28;3.98;;;;;;;24.68;47.70;97829.36;1494857;96;26154;-58
2022/05/24 13:10:30;;;;;;;5.05;3.30;;;;;;;24.81;46.22;97833.70;1502985;95;25573;-60
2022/05/24 13:13:01;;;;;;;5.72;3.55;;;;;;;24.66;45.74;97831.19;1505079;95;27725;-61
2022/05/24 13:15:37;;;;;;;5.65;3.92;;;;;;;24.48;46.68;97836.34;1504896;95;25877;-61
2022/05/24 13:18:17;;;;;;;10.32;4.17;;;;;;;24.59;49.02;97838.34;1504955;95;25612;-61
2022/05/24 13:20:55;;;;;;;6.00;4.08;;;;;;;24.84;48.95;97837.03;1505122;95;25733;-60
2022/05/24 13:23:27;;;;;;;6.50;4.17;;;;;;;25.09;47.41;97827.95;1509834;93;25769;-61
2022/05/24 13:26:04;;;;;;;7.65;4.20;;;;;;;25.29;47.71;97827.33;1528195;93;27363;-58
2022/05/24 13:28:53;;;;;;;8.43;3.65;;;;;;;25.32;46.66;97829.86;1484990;95;25962;-59
2022/05/24 13:34:30;;;;;;;6.75;3.67;;;;;;;25.71;47.43;97831.63;1520322;93;25793;-59
2022/05/24 13:37:07;;;;;;;5.37;4.08;;;;;;;25.98;46.07;97833.97;1471248;97;25539;-60
2022/05/24 13:39:53;;;;;;;7.60;4.87;;;;;;;26.12;44.86;97837.83;1451286;97;27338;-57
2022/05/24 13:42:27;;;;;;;4.08;3.45;;;;;;;25.86;45.38;97840.48;1498697;95;26089;-60
2022/05/24 13:45:17;;;;;;;8.88;3.58;;;;;;;25.74;45.84;97843.37;1470031;97;25741;-60
2022/05/24 13:48:00;;;;;;;6.08;3.80;;;;;;;25.58;46.67;97839.89;1448028;99;26072;-62
2022/05/24 13:53:31;;;;;;;6.05;3.80;;;;;;;25.38;46.74;97844.15;1429427;100;26062;-62
2022/05/24 13:56:16;;;;;;;10.88;4.55;;;;;;;25.30;46.17;97844.95;1405022;100;25981;-61
2022/05/24 13:58:49;;;;;;;5.95;3.92;;;;;;;25.16;46.87;97846.05;1362510;105;25768;-61
2022/05/24 14:01:28;;;;;;;8.05;3.80;;;;;;;25.04;46.54;97851.70;1362177;103;28726;-61
2022/05/24 14:04:03;;;;;;;5.17;3.50;;;;;;;24.83;47.65;97859.87;1362676;105;25858;-61
2022/05/24 14:06:30;;;;;;;5.55;3.75;;;;;;;24.59;47.52;97862.14;1368979;104;27459;-62
2022/05/24 14:09:00;;;;;;;4.03;3.02;;;;;;;24.36;47.62;97865.77;1402213;102;25778;-62
2022/05/24 14:11:33;;;;;;;4.00;3.00;;;;;;;24.19;47.84;97869.85;1355985;105;25921;-62
2022/05/24 14:14:01;;;;;;;5.30;3.10;;;;;;;24.00;48.40;97876.31;1385111;102;25918;-60
2022/05/24 14:16:31;;;;;;;4.90;3.25;;;;;;;23.81;48.43;97879.22;1415197;99;25633;-62
2022/05/24 14:18:58;;;;;;;4.75;3.45;;;;;;;23.67;49.03;97885.82;1425182;100;27519;-61
2022/05/24 14:21:33;;;;;;;5.78;3.37;;;;;;;23.56;49.26;97875.59;1450064;96;25950;-62
2022/05/24 14:23:59;;;;;;;5.42;3.25;;;;;;;23.42;49.71;97879.97;1503804;95;25623;-62
2022/05/24 14:26:27;;;;;;;4.92;3.33;;;;;;;23.19;49.91;97879.45;1478833;95;25544;-61
2022/05/24 14:28:56;;;;;;;4.50;3.17;;;;;;;22.99;51.65;97882.08;1499884;95;25756;-61
2022/05/24 14:31:24;;;;;;;4.83;3.42;;;;;;;22.74;52.83;97892.15;1549865;91;27607;-59
2022/05/24 14:33:51;;;;;;;4.05;3.05;;;;;;;22.46;55.05;97896.78;1572687;91;25888;-59
2022/05/24 14:36:17;;;;;;;6.65;3.80;;;;;;;22.20;55.06;97895.62;1590688;89;25664;-62
2022/05/24 14:38:55;;;;;;;;;;;;;;;;;;;;;
2022/05/24 14:41:22;;;;;;;5.60;3.87;;;;;;;21.85;55.88;97893.30;1629838;87;25756;-59
2022/05/24 14:43:51;;;;;;;4.85;3.37;;;;;;;21.72;56.05;97901.30;1513650;94;26144;-59
2022/05/24 14:46:20;;;;;;;6.30;3.55;;;;;;;21.64;56.87;97900.55;1502915;94;25805;-59
2022/05/24 14:48:47;;;;;;;6.12;3.62;;;;;;;21.54;57.21;97905.00;1485283;96;25966;-59
2022/05/24 14:51:46;;;;;;;6.45;3.95;;;;;;;21.37;57.28;97901.91;1485775;96;25709;-59
2022/05/24 14:54:13;;;;;;;4.47;3.80;;;;;;;21.26;57.89;97907.53;1485579;96;25729;-59
2022/05/24 14:56:39;;;;;;;7.22;4.03;;;;;;;21.09;58.72;97910.58;1483281;96;27645;-62
2022/05/24 14:59:08;;;;;;;5.85;3.60;;;;;;;20.99;59.37;97906.65;1464486;97;25628;-59
2022/05/24 15:01:36;;;;;;;5.03;4.20;;;;;;;20.87;60.52;97907.83;1464727;97;26082;-59
2022/05/24 15:04:03;;;;;;;5.05;3.83;;;;;;;20.78;60.43;97914.44;1464773;98;25845;-58
2022/05/24 15:06:30;;;;;;;4.60;3.70;;;;;;;20.70;61.16;97915.05;1464713;98;25839;-59
2022/05/24 15:17:33;;;;;;;;;;;;;;;;;;;;;
2022/05/24 15:19:46;;;;;;;5.92;4.47;;;;;;;20.47;62.32;97916.28;1385327;102;25843;-57
2022/05/24 15:22:13;;;;;;;8.40;4.75;;;;;;;20.41;63.13;97915.86;1492614;95;26906;-58
2022/05/24 15:24:42;;;;;;;5.67;5.03;;;;;;;20.33;63.78;97920.45;1500569;95;25613;-58
2022/05/24 15:27:10;;;;;;;7.40;4.87;;;;;;;20.20;63.69;97922.84;1500883;95;25844;-59
2022/05/24 15:29:40;;;;;;;7.08;5.33;;;;;;;20.08;65.06;97928.98;1500801;95;26348;-58
2022/05/24 15:32:07;;;;;;;7.28;5.10;;;;;;;19.97;65.41;97929.56;1485901;96;25623;-58
2022/05/24 15:34:34;;;;;;;9.08;5.50;;;;;;;19.91;66.30;97931.33;1485681;96;27631;-58
2022/05/24 15:37:03;;;;;;;8.98;5.33;;;;;;;19.88;65.73;97934.09;1488015;95;25852;-59
2022/05/24 15:42:09;;;;;;;6.67;5.05;;;;;;;19.82;66.74;97929.52;1366748;103;25950;-62
2022/05/24 15:44:38;;;;;;;5.70;5.20;;;;;;;19.77;66.38;97927.12;1385779;103;25916;-61
2022/05/24 15:47:18;;;;;;;;;;;;;;;;;;;;;
2022/05/24 15:49:36;;;;;;;8.93;5.10;;;;;;;19.59;67.67;97924.30;1416610;100;25599;-61
2022/05/24 15:52:07;;;;;;;6.28;5.20;;;;;;;19.47;67.30;97929.05;1395045;102;25676;-58
2022/05/24 15:54:35;;;;;;;5.75;5.15;;;;;;;19.34;67.41;97926.42;1393428;103;26187;-58
2022/05/24 15:57:02;;;;;;;7.78;5.78;;;;;;;19.25;67.56;97919.82;1408941;100;25794;-59
2022/05/24 15:59:41;;;;;;;;;;;;;;;;;;;;;
2022/05/24 16:02:02;;;;;;;11.30;5.75;;;;;;;19.16;68.44;97919.61;1413245;101;25971;-58
2022/05/24 16:10:03;;;;;;;8.53;6.00;;;;;;;19.24;68.69;97925.19;1415604;101;25838;-60
2022/05/24 16:12:45;;;;;;;;;;;;;;;;;;;;;
2022/05/24 16:15:07;;;;;;;8.28;6.33;;;;;;;19.27;69.02;97923.82;1393685;102;25698;-58
2022/05/24 16:17:36;;;;;;;6.10;5.50;;;;;;;19.29;69.10;97925.59;1382140;102;25680;-61
2022/05/24 16:20:06;;;;;;;8.48;6.08;;;;;;;19.27;68.75;97929.38;1401254;101;25949;-57
2022/05/24 16:22:36;;;;;;;10.78;6.65;;;;;;;19.21;68.97;97927.35;1416410;101;25827;-62
2022/05/24 16:25:05;;;;;;;7.50;6.67;;;;;;;19.18;69.05;97930.33;1418814;101;27576;-58
2022/05/24 16:27:32;;;;;;;6.90;5.85;;;;;;;19.12;69.44;97936.86;1408691;101;25658;-58
2022/05/24 16:29:58;;;;;;;8.28;6.30;;;;;;;19.05;69.65;97933.41;1441384;97;25853;-56
2022/05/24 16:32:37;;;;;;;;;;;;;;;;;;;;;
2022/05/24 16:34:54;;;;;;;7.72;6.17;;;;;;;18.90;69.20;97939.48;1441050;97;25886;-59
2022/05/24 16:37:23;;;;;;;7.28;6.15;;;;;;;18.83;69.45;97949.16;1472845;97;27401;-56
2022/05/24 16:39:49;;;;;;;7.78;6.20;;;;;;;18.80;70.05;97948.55;1470993;95;25872;-57
2022/05/24 16:42:18;;;;;;;8.05;5.45;;;;;;;18.77;69.21;97952.09;1497568;95;25712;-59
2022/05/24 16:47:32;;;;;;;6.62;5.45;;;;;;;18.76;70.46;97959.61;1531596;91;25810;-62
2022/05/24 16:50:00;;;;;;;6.60;5.42;;;;;;;18.74;69.77;97955.64;1560761;91;27440;-60
2022/05/24 16:52:28;;;;;;;7.10;5.85;;;;;;;18.72;69.62;97955.22;1530582;92;25813;-60
2022/05/24 17:00:27;;;;;;;9.20;5.25;;;;;;;18.59;69.85;97958.30;1499679;95;25815;-60
2022/05/24 17:03:10;;;;;;;;;;;;;;;;;;;;;
2022/05/24 17:05:35;;;;;;;8.03;6.40;;;;;;;18.54;70.33;97966.39;1408002;101;25911;-61
2022/05/24 17:08:09;;;;;;;8.18;6.33;;;;;;;18.51;69.97;97963.61;1389126;102;25749;-61
2022/05/24 17:10:38;;;;;;;8.75;5.85;;;;;;;18.54;70.07;97968.39;1356244;105;25613;-58
2022/05/24 17:13:08;;;;;;;10.50;6.05;;;;;;;18.56;70.12;97967.39;1383634;103;25818;-58
2022/05/24 17:18:09;;;;;;;6.65;5.67;;;;;;;18.58;70.15;97974.75;1345408;106;25865;-59
2022/05/24 17:20:37;;;;;;;7.10;5.62;;;;;;;18.58;69.95;97973.37;1345494;106;25719;-59
2022/05/24 17:23:07;;;;;;;7.85;5.95;;;;;;;18.57;70.10;97978.72;1345865;106;25835;-58
2022/05/24 17:25:34;;;;;;;7.80;6.25;;;;;;;18.53;70.37;97975.09;1338644;106;25792;-58
2022/05/24 17:28:02;;;;;;;9.13;6.50;;;;;;;18.50;70.66;97980.03;1340874;106;28383;-59
2022/05/24 17:30:30;;;;;;;7.78;6.58;;;;;;;18.38;71.19;97984.70;1354969;103;25856;-57
2022/05/24 17:33:22;;;;;;;10.58;6.40;;;;;;;18.26;72.12;97986.38;1412487;101;25673;-57
2022/05/24 17:35:50;;;;;;;10.72;7.12;;;;;;;18.15;71.67;97998.75;1412293;101;25775;-58
2022/05/24 17:38:17;;;;;;;10.45;6.65;;;;;;;18.08;71.78;97998.66;1412475;101;25762;-57
2022/05/24 17:40:48;;;;;;;8.13;6.47;;;;;;;18.03;72.36;97990.90;1417447;100;27439;-58
2022/05/24 17:43:17;;;;;;;;;;;;;;;17.97;73.19;97998.55;1429857;98;27202;-57
2022/05/24 17:45:45;;;;;;;6.72;5.83;;;;;;;17.87;73.51;97997.23;1440318;98;25855;-57
2022/05/24 17:48:17;;;;;;;7.67;6.10;;;;;;;17.83;73.63;97999.18;1435456;98;25833;-56
2022/05/24 17:50:45;;;;;;;8.05;5.92;;;;;;;17.75;73.80;97994.14;1417901;97;25838;-57
2022/05/24 17:53:14;;;;;;;8.55;5.67;;;;;;;17.78;73.65;97994.77;1452446;98;27465;-57
2022/05/24 17:55:45;;;;;;;6.65;5.85;;;;;;;17.82;75.44;98002.56;1528114;90;25853;-57
2022/05/24 17:58:13;;;;;;;5.75;5.17;;;;;;;17.83;73.88;97999.18;1585066;88;25806;-60
2022/05/24 18:00:41;;;;;;;8.25;5.60;;;;;;;17.81;73.91;98005.91;1584821;90;25586;-60
2022/05/24 18:03:13;;;;;;;7.60;6.17;;;;;;;17.81;73.98;98005.91;1513803;93;25534;-61
2022/05/24 18:05:44;;;;;;;8.50;6.42;;;;;;;17.75;74.08;98015.73;1519975;94;27522;-60
2022/05/24 18:08:11;;;;;;;6.95;5.95;;;;;;;17.64;74.51;98016.98;1445459;99;25874;-60
2022/05/24 18:10:49;;;;;;;;;;;;;;;;;;;;;
2022/05/24 18:13:12;;;;;;;8.70;7.50;;;;;;;17.60;74.74;98027.23;1462732;98;25833;-60
2022/05/24 18:15:41;;;;;;;7.00;6.30;;;;;;;17.58;74.94;98021.88;1444064;99;25924;-60
2022/05/24 18:18:11;;;;;;;6.58;5.83;;;;;;;17.63;74.55;98020.95;1397478;102;27579;-60
2022/05/24 18:20:45;;;;;;;6.80;5.87;;;;;;;17.59;74.33;98026.23;1351202;106;25630;-60
2022/05/24 18:23:17;;;;;;;6.37;5.70;;;;;;;17.65;74.78;98024.72;1326731;107;25814;-61
2022/05/24 18:34:15;;;;;;;8.55;6.85;;;;;;;17.87;74.65;98030.50;1307843;109;25945;-58
2022/05/24 18:36:47;;;;;;;7.55;6.80;;;;;;;17.86;74.71;98034.45;1289419;109;25881;-57
2022/05/24 18:39:14;;;;;;;8.95;6.90;;;;;;;17.85;74.51;98040.61;1255605;113;26301;-59
2022/05/24 18:41:43;;;;;;;10.40;6.97;;;;;;;17.76;74.35;98034.55;1232836;116;25935;-60
2022/05/24 18:44:10;;;;;;;8.43;6.40;;;;;;;17.69;74.44;98029.71;1236671;115;27476;-60
2022/05/24 18:46:39;;;;;;;7.62;6.22;;;;;;;17.67;74.51;98034.83;1265224;112;25888;-59
2022/05/24 18:49:07;;;;;;;10.25;8.10;;;;;;;17.74;74.93;98039.09;1271753;112;25917;-62
2022/05/24 18:51:35;;;;;;;7.85;7.05;;;;;;;17.82;74.61;98045.52;1289826;109;25903;-60
2022/05/24 18:54:03;;;;;;;10.40;6.92;;;;;;;17.84;74.75;98043.75;1301188;110;25783;-60
2022/05/24 18:56:31;;;;;;;9.73;7.45;;;;;;;17.85;74.89;98045.34;1305734;109;27649;-61
2022/05/24 18:58:58;;;;;;;15.65;11.50;;;;;;;17.89;74.88;98048.94;1291625;111;25992;-62
2022/05/24 19:01:27;;;;;;;11.88;8.38;;;;;;;17.94;74.74;98051.39;1337031;105;25861;-60
2022/05/24 19:03:53;;;;;;;12.53;9.23;;;;;;;17.96;74.91;98056.55;1362003;105;25615;-61
2022/05/24 19:06:22;;;;;;;11.28;8.70;;;;;;;17.95;74.76;98054.36;1345661;106;25801;-60
2022/05/24 19:08:55;;;;;;;12.05;9.00;;;;;;;17.94;74.66;98052.77;1363833;105;27414;-59
2022/05/24 19:11:21;;;;;;;12.55;9.25;;;;;;;17.86;74.75;98060.78;1371815;104;25873;-62
2022/05/24 19:13:48;;;;;;;12.73;9.40;;;;;;;17.84;75.08;98072.25;1372046;104;25887;-59
2022/05/24 19:16:15;;;;;;;11.22;8.78;;;;;;;17.84;74.74;98071.47;1376793;103;25936;-59
2022/05/24 19:18:42;;;;;;;11.85;8.55;;;;;;;17.82;74.70;98076.00;1389801;103;25732;-59
2022/05/24 19:21:09;;;;;;;10.78;8.48;;;;;;;17.77;74.64;98078.52;1400284;100;27618;-58
2022/05/24 19:23:37;;;;;;;11.30;8.63;;;;;;;17.78;74.78;98080.10;1431304;100;25677;-58
2022/05/24 19:26:06;;;;;;;10.88;8.98;;;;;;;17.79;75.17;98083.69;1438533;96;25580;-59
2022/05/24 19:28:34;;;;;;;12.68;8.70;;;;;;;17.78;75.16;98091.77;1437091;98;25899;-59
2022/05/24 19:31:01;;;;;;;10.43;8.90;;;;;;;17.83;75.81;98097.56;1437983;99;25650;-59
2022/05/24 19:33:28;;;;;;;12.78;9.40;;;;;;;17.90;75.58;98092.11;1438114;99;27470;-62
2022/05/24 19:35:59;;;;;;;13.32;10.38;;;;;;;17.96;75.40;98098.13;1460352;93;25750;-62
2022/05/24 19:38:29;;;;;;;13.50;10.15;;;;;;;18.00;75.40;98107.28;1538784;93;25563;-59
2022/05/24 19:43:44;;;;;;;12.25;9.83;;;;;;;18.00;75.54;98110.05;1459150;98;25850;-62
2022/05/24 19:46:10;;;;;;;11.38;9.10;;;;;;;17.97;75.58;98114.39;1423257;99;27454;-62
2022/05/24 19:48:39;;;;;;;11.22;9.40;;;;;;;17.95;75.52;98112.57;1417761;101;25846;-61
2022/05/24 19:53:34;;;;;;;12.68;9.35;;;;;;;17.99;75.49;98116.17;1401961;102;25718;-62
2022/05/24 19:56:04;;;;;;;12.43;9.55;;;;;;;18.01;75.60;98115.22;1409482;101;25609;-60
2022/05/24 19:58:32;;;;;;;10.53;8.90;;;;;;;18.03;75.69;98125.94;1416053;98;27502;-59
2022/05/24 20:01:00;;;;;;;13.35;9.83;;;;;;;18.02;75.57;98132.66;1456866;98;25591;-58
2022/05/24 20:03:29;;;;;;;13.65;9.60;;;;;;;17.98;75.13;98129.03;1467057;97;25584;-58
2022/05/24 20:10:57;;;;;;;15.45;10.90;;;;;;;17.84;74.88;98134.61;1398886;102;25990;-61
2022/05/24 20:13:23;;;;;;;14.13;10.98;;;;;;;17.80;75.15;98133.19;1405113;102;25911;-61
2022/05/24 20:16:02;;;;;;;15.05;11.00;;;;;;;17.78;75.15;98134.72;1405356;102;25814;-61
2022/05/24 20:18:30;;;;;;;14.45;10.38;;;;;;;17.76;74.92;98145.40;1358317;102;25815;-60
2022/05/24 20:20:57;;;;;;;15.93;11.57;;;;;;;17.77;75.01;98139.48;1379964;103;25871;-61
2022/05/24 20:23:24;;;;;;;15.80;11.90;;;;;;;17.78;74.82;98148.58;1387906;103;27506;-60
2022/05/24 20:25:51;;;;;;;13.88;10.63;;;;;;;17.76;74.78;98149.55;1387873;103;25928;-58
2022/05/24 20:28:17;;;;;;;12.65;11.30;;;;;;;17.83;74.98;98148.84;1381697;103;25622;-57
2022/05/24 20:30:57;;;;;;;;;;;;;;;;;;;;;
2022/05/24 20:33:16;;;;;;;17.75;11.90;;;;;;;17.89;75.05;98148.14;1357077;105;25867;-58
2022/05/24 20:35:45;;;;;;;13.80;11.65;;;;;;;17.92;75.10;98157.09;1367831;104;27679;-58
2022/05/24 20:46:33;;;;;;;15.10;11.80;;;;;;;17.86;75.42;98148.89;1325227;107;25587;-58
2022/05/24 20:48:59;;;;;;;17.20;11.93;;;;;;;17.81;75.48;98150.02;1299654;109;27482;-59
2022/05/24 20:53:56;;;;;;;15.83;12.73;;;;;;;17.86;75.60;98153.05;1288056;111;25811;-61
2022/05/24 20:56:23;;;;;;;17.23;11.57;;;;;;;17.89;75.62;98148.72;1258740;114;25630;-61
2022/05/24 20:58:51;;;;;;;15.40;12.63;;;;;;;17.89;75.63;98153.69;1248404;114;25733;-59
2022/05/24 21:01:20;;;;;;;16.93;13.03;;;;;;;17.89;75.50;98157.04;1272306;112;26453;-62
2022/05/24 21:03:59;;;;;;;;;;;;;;;;;;;;;
2022/05/24 21:06:20;;;;;;;16.75;13.90;;;;;;;17.90;75.68;98138.64;1275652;112;25910;-61
2022/05/24 21:08:59;;;;;;;20.60;14.80;;;;;;;17.92;75.85;98139.66;1225089;116;25979;-61
2022/05/24 21:11:26;;;;;;;18.90;14.73;;;;;;;17.85;75.81;98125.71;1215028;117;26012;-62
2022/05/24 21:14:02;;;;;;;;;;;;;;;;;;;;;
2022/05/24 21:16:19;;;;;;;21.10;14.87;;;;;;;17.79;76.07;98141.27;1218193;117;25965;-62
2022/05/24 21:18:47;;;;;;;19.20;14.95;;;;;;;17.78;76.32;98137.48;1248831;113;25904;-62
2022/05/24 21:21:13;;;;;;;20.55;16.00;;;;;;;17.71;76.44;98133.24;1251979;113;25766;-61
2022/05/24 21:29:00;;;;;;;21.57;15.75;;;;;;;17.60;77.05;98140.02;1261648;113;25938;-57
2022/05/24 21:31:28;;;;;;;20.23;14.67;;;;;;;17.52;77.31;98149.62;1249311;113;25768;-58
2022/05/24 21:33:54;;;;;;;18.60;14.13;;;;;;;17.42;77.66;98148.27;1193910;119;25725;-62
2022/05/24 21:36:28;;;;;;;18.17;14.25;;;;;;;17.38;78.24;98152.16;1194242;115;25933;-62
2022/05/24 21:38:53;;;;;;;18.92;14.55;;;;;;;17.37;77.98;98153.34;1206786;114;26162;-62
2022/05/24 21:41:21;;;;;;;21.42;14.80;;;;;;;17.47;77.95;98154.08;1256975;114;25721;-62
2022/05/24 21:43:47;;;;;;;19.37;14.65;;;;;;;17.59;77.70;98155.86;1255074;114;25849;-61
2022/05/24 21:46:15;;;;;;;21.45;16.45;;;;;;;17.65;77.64;98149.41;1252867;114;26024;-62
2022/05/24 21:48:42;;;;;;;20.40;15.75;;;;;;;17.70;77.79;98155.98;1260854;113;25826;-61
2022/05/24 21:51:12;;;;;;;28.32;19.98;;;;;;;17.73;77.84;98146.15;1245135;114;27484;-62
2022/05/24 21:53:40;;;;;;;87.92;62.67;;;;;;;17.67;77.90;98147.03;1262212;112;25999;-61
2022/05/24 21:56:20;;;;;;;37.78;30.48;;;;;;;17.67;77.90;98147.03;1305597;109;25894;-61
2022/05/24 21:58:48;;;;;;;23.15;18.92;;;;;;;17.62;78.07;98147.38;1291674;111;25699;-62
2022/05/24 22:01:16;;;;;;;22.07;16.82;;;;;;;17.58;78.29;98139.00;1305772;109;25645;-60
2022/05/24 22:03:45;;;;;;;18.82;15.10;;;;;;;17.56;78.15;98138.59;1258685;112;27688;-58
2022/05/24 22:06:26;;;;;;;;;;;;;;;;;;;;;
2022/05/24 22:08:45;;;;;;;19.25;15.48;;;;;;;17.54;78.03;98136.78;1276124;109;25820;-59
2022/05/24 22:11:15;;;;;;;18.37;14.50;;;;;;;17.48;78.13;98132.16;1343399;104;25830;-58
2022/05/24 22:13:57;;;;;;;;;;;;;;;;;;;;;
2022/05/24 22:18:43;;;;;;;22.37;16.25;;;;;;;17.51;78.02;98141.11;1385456;103;25679;-62
2022/05/24 22:21:11;;;;;;;19.02;15.15;;;;;;;17.53;77.88;98135.19;1387421;100;25800;-61
2022/05/24 22:23:39;;;;;;;18.73;15.85;;;;;;;17.54;78.00;98136.78;1403071;102;25833;-62
2022/05/24 22:26:10;;;;;;;21.42;17.05;;;;;;;17.54;77.93;98133.44;1362947;104;25770;-62
2022/05/24 22:28:47;;;;;;;;;;;;;;;;;;;;;
2022/05/24 22:31:07;;;;;;;20.75;15.60;;;;;;;17.53;78.04;98124.89;1412494;101;25960;-61
2022/05/24 22:33:36;;;;;;;21.17;15.65;;;;;;;17.53;78.02;98123.50;1412786;101;25667;-58
2022/05/24 22:38:37;;;;;;;18.60;14.90;;;;;;;17.48;77.98;98134.11;1397545;101;25667;-58
2022/05/24 22:43:50;;;;;;;;;;;;;;;;;;;;;